Time;durP1;ratioP1;P1;durP2;ratioP2;P2;SDS_P1;SDS_P2;PMS_P1;PMS_P2;Temp;Humidity;BMP_temperature;BMP_pressure;BME280_temperature;BME280_humidity;BME280_pressure;Samples;Min_cycle;Max_cycle;Signal;HPM_P1;HPM_P2
2021/01/07 00:02:24;;;;;;;29.73;17.90;;;;;;;;;;5098817;28;20184;-85
2021/01/07 00:04:50;;;;;;;25.48;16.10;;;;;;;;;;5103103;28;20457;-86
2021/01/07 00:07:16;;;;;;;28.97;17.37;;;;;;;;;;5103762;28;20217;-86
2021/01/07 00:09:42;;;;;;;28.48;17.95;;;;;;;;;;5101326;28;20437;-86
2021/01/07 00:12:07;;;;;;;29.52;17.77;;;;;;;;;;5100880;28;20646;-86
2021/01/07 00:14:34;;;;;;;29.58;17.92;;;;;;;;;;5099247;28;20175;-86
2021/01/07 00:16:59;;;;;;;32.47;17.73;;;;;;;;;;5096950;28;20225;-86
2021/01/07 00:19:25;;;;;;;25.87;17.20;;;;;;;;;;5103447;28;20207;-86
2021/01/07 00:21:51;;;;;;;26.07;16.97;;;;;;;;;;5102950;28;20430;-86
2021/01/07 00:24:17;;;;;;;29.02;16.88;;;;;;;;;;5102316;28;20469;-86
2021/01/07 00:26:43;;;;;;;25.63;15.00;;;;;;;;;;5096310;28;20172;-86
2021/01/07 00:29:09;;;;;;;25.63;15.73;;;;;;;;;;5101977;28;20182;-86
2021/01/07 00:31:35;;;;;;;28.98;15.15;;;;;;;;;;5102858;28;20262;-84
2021/01/07 00:34:01;;;;;;;29.15;16.63;;;;;;;;;;5103200;28;20409;-86
2021/01/07 00:36:27;;;;;;;24.00;14.55;;;;;;;;;;5103791;28;20190;-86
2021/01/07 00:38:53;;;;;;;26.00;15.00;;;;;;;;;;5094963;28;20191;-84
2021/01/07 00:41:20;;;;;;;26.35;14.55;;;;;;;;;;5098173;28;20444;-86
2021/01/07 00:43:46;;;;;;;25.77;16.00;;;;;;;;;;5102268;28;20215;-86
2021/01/07 00:46:12;;;;;;;26.98;14.23;;;;;;;;;;5102920;28;20188;-85
2021/01/07 00:48:38;;;;;;;24.80;14.35;;;;;;;;;;5099980;28;20513;-86
2021/01/07 00:51:06;;;;;;;25.30;14.13;;;;;;;;;;5101923;28;20556;-86
2021/01/07 00:53:32;;;;;;;23.38;15.02;;;;;;;;;;5102415;28;20425;-86
2021/01/07 00:55:58;;;;;;;23.37;13.77;;;;;;;;;;5096630;28;20183;-86
2021/01/07 00:58:24;;;;;;;22.60;13.73;;;;;;;;;;5101516;28;20476;-84
2021/01/07 01:00:50;;;;;;;21.92;13.25;;;;;;;;;;5101660;28;20545;-86
2021/01/07 01:03:16;;;;;;;22.58;13.25;;;;;;;;;;5100406;28;20187;-85
2021/01/07 01:05:42;;;;;;;22.58;15.05;;;;;;;;;;5101951;28;20235;-85
2021/01/07 01:08:08;;;;;;;21.88;13.50;;;;;;;;;;5098070;28;20188;-86
2021/01/07 01:10:34;;;;;;;24.33;13.20;;;;;;;;;;5094560;28;20172;-86
2021/01/07 01:13:00;;;;;;;22.08;14.20;;;;;;;;;;5097701;28;20196;-86
2021/01/07 01:15:27;;;;;;;24.83;15.20;;;;;;;;;;5099412;28;20182;-86
2021/01/07 01:17:53;;;;;;;26.48;14.90;;;;;;;;;;5094902;28;20176;-85
2021/01/07 01:20:19;;;;;;;24.38;14.52;;;;;;;;;;5098367;28;20178;-86
2021/01/07 01:22:48;;;;;;;24.75;14.80;;;;;;;;;;5102307;28;20175;-85
2021/01/07 01:25:15;;;;;;;18.80;13.13;;;;;;;;;;5102075;28;20195;-86
2021/01/07 01:27:42;;;;;;;21.85;14.43;;;;;;;;;;5098823;28;20377;-85
2021/01/07 01:30:08;;;;;;;23.17;13.77;;;;;;;;;;5101080;28;20180;-86
2021/01/07 01:32:35;;;;;;;23.80;13.75;;;;;;;;;;5102100;28;20172;-86
2021/01/07 01:35:01;;;;;;;23.75;13.68;;;;;;;;;;5097659;28;20244;-86
2021/01/07 01:37:28;;;;;;;21.10;13.60;;;;;;;;;;5096986;28;20192;-85
2021/01/07 01:39:54;;;;;;;21.33;12.25;;;;;;;;;;5101126;28;20211;-86
2021/01/07 01:42:26;;;;;;;23.90;13.07;;;;;;;;;;5100475;28;20188;-86
2021/01/07 01:44:53;;;;;;;21.15;12.45;;;;;;;;;;5099038;28;20485;-86
2021/01/07 01:47:19;;;;;;;21.05;13.15;;;;;;;;;;5099004;28;20174;-86
2021/01/07 01:49:50;;;;;;;23.40;14.35;;;;;;;;;;5101608;28;20184;-86
2021/01/07 01:52:16;;;;;;;20.10;14.90;;;;;;;;;;5101858;28;20190;-86
2021/01/07 01:54:43;;;;;;;23.67;14.87;;;;;;;;;;5099319;28;20192;-86
2021/01/07 01:57:11;;;;;;;25.45;14.07;;;;;;;;;;5099029;28;20441;-86
2021/01/07 01:59:37;;;;;;;25.40;14.95;;;;;;;;;;5095629;28;20227;-85
2021/01/07 02:02:05;;;;;;;19.83;12.43;;;;;;;;;;5092587;28;20187;-85
2021/01/07 02:04:31;;;;;;;23.98;14.98;;;;;;;;;;5097012;28;20207;-86
2021/01/07 02:06:58;;;;;;;23.27;13.15;;;;;;;;;;5102090;28;20183;-86
2021/01/07 02:09:24;;;;;;;19.65;13.55;;;;;;;;;;5097527;28;20184;-85
2021/01/07 02:11:50;;;;;;;21.02;13.60;;;;;;;;;;5100104;28;20657;-84
2021/01/07 02:14:16;;;;;;;25.98;14.90;;;;;;;;;;5097346;28;20204;-86
2021/01/07 02:16:42;;;;;;;22.58;13.30;;;;;;;;;;5101229;28;20203;-86
2021/01/07 02:19:08;;;;;;;20.75;12.52;;;;;;;;;;5105567;28;20188;-86
2021/01/07 02:21:37;;;;;;;25.40;14.17;;;;;;;;;;5102769;28;20218;-85
2021/01/07 02:24:03;;;;;;;21.85;12.88;;;;;;;;;;5103484;28;20477;-85
2021/01/07 02:26:30;;;;;;;21.27;12.52;;;;;;;;;;5101840;28;20589;-84
2021/01/07 02:28:56;;;;;;;21.95;13.73;;;;;;;;;;5098794;28;20172;-86
2021/01/07 02:31:22;;;;;;;23.00;13.15;;;;;;;;;;5105146;28;20222;-85
2021/01/07 02:33:47;;;;;;;22.25;13.70;;;;;;;;;;5102725;28;20179;-85
2021/01/07 02:36:13;;;;;;;25.23;13.95;;;;;;;;;;5100759;28;20247;-86
2021/01/07 02:38:40;;;;;;;20.83;12.93;;;;;;;;;;5104668;28;20183;-86
2021/01/07 02:41:06;;;;;;;27.55;12.70;;;;;;;;;;5099281;28;20179;-86
2021/01/07 02:43:32;;;;;;;22.02;12.73;;;;;;;;;;5097978;28;20218;-86
2021/01/07 02:45:58;;;;;;;26.83;13.00;;;;;;;;;;5101661;28;20192;-86
2021/01/07 02:48:24;;;;;;;22.10;13.73;;;;;;;;;;5103162;28;20585;-85
2021/01/07 02:50:50;;;;;;;24.25;13.30;;;;;;;;;;5097437;28;20192;-86
2021/01/07 02:53:16;;;;;;;20.58;13.00;;;;;;;;;;5100738;28;20168;-86
2021/01/07 02:55:42;;;;;;;18.75;12.50;;;;;;;;;;5098580;28;20186;-86
2021/01/07 02:58:08;;;;;;;21.13;13.45;;;;;;;;;;5096916;28;20249;-85
2021/01/07 03:00:34;;;;;;;24.63;16.17;;;;;;;;;;5102029;28;20219;-85
2021/01/07 03:02:59;;;;;;;25.95;15.85;;;;;;;;;;5098324;28;20191;-85
2021/01/07 03:05:25;;;;;;;23.17;14.43;;;;;;;;;;5102910;28;20199;-84
2021/01/07 03:07:51;;;;;;;27.60;15.75;;;;;;;;;;5101249;28;20195;-86
2021/01/07 03:10:18;;;;;;;25.15;14.75;;;;;;;;;;5092096;28;20184;-85
2021/01/07 03:12:44;;;;;;;27.55;14.35;;;;;;;;;;5090575;28;20229;-83
2021/01/07 03:15:10;;;;;;;24.33;14.47;;;;;;;;;;5103116;28;20184;-84
2021/01/07 03:17:36;;;;;;;24.48;13.57;;;;;;;;;;5103126;28;20421;-85
2021/01/07 03:20:02;;;;;;;22.40;13.70;;;;;;;;;;5099406;28;20244;-85
2021/01/07 03:22:28;;;;;;;22.55;13.73;;;;;;;;;;5104443;28;20184;-85
2021/01/07 03:24:54;;;;;;;27.75;14.63;;;;;;;;;;5102660;28;20195;-86
2021/01/07 03:27:20;;;;;;;26.70;14.75;;;;;;;;;;5099827;28;20286;-86
2021/01/07 03:29:46;;;;;;;26.33;13.95;;;;;;;;;;5102632;28;20179;-85
2021/01/07 03:32:12;;;;;;;22.75;14.30;;;;;;;;;;5100167;28;20587;-84
2021/01/07 03:34:38;;;;;;;22.87;12.73;;;;;;;;;;5097900;28;20259;-85
2021/01/07 03:37:04;;;;;;;25.58;14.32;;;;;;;;;;5103884;28;20461;-85
2021/01/07 03:39:30;;;;;;;25.10;14.40;;;;;;;;;;5099908;28;20192;-85
2021/01/07 03:41:56;;;;;;;23.37;14.40;;;;;;;;;;5102033;28;20199;-86
2021/01/07 03:44:22;;;;;;;22.67;14.63;;;;;;;;;;5105770;28;20456;-84
2021/01/07 03:46:48;;;;;;;25.10;14.30;;;;;;;;;;5103400;28;20196;-86
2021/01/07 03:49:14;;;;;;;21.83;13.47;;;;;;;;;;5102754;28;20524;-85
2021/01/07 03:51:40;;;;;;;22.80;13.50;;;;;;;;;;5101002;28;20473;-85
2021/01/07 03:54:05;;;;;;;23.83;14.10;;;;;;;;;;5101995;28;20184;-85
2021/01/07 03:56:31;;;;;;;22.85;14.32;;;;;;;;;;5097473;28;20207;-84
2021/01/07 03:58:57;;;;;;;24.90;14.70;;;;;;;;;;5096852;28;20183;-85
2021/01/07 04:01:23;;;;;;;26.80;15.20;;;;;;;;;;5102714;28;20468;-85
2021/01/07 04:03:49;;;;;;;23.65;13.55;;;;;;;;;;5098973;28;20522;-85
2021/01/07 04:06:15;;;;;;;25.95;14.07;;;;;;;;;;5099092;28;20177;-85
2021/01/07 04:08:43;;;;;;;23.50;13.25;;;;;;;;;;5089281;28;20207;-85
2021/01/07 04:11:09;;;;;;;27.35;14.80;;;;;;;;;;5095885;28;20167;-86
2021/01/07 04:13:35;;;;;;;20.50;13.13;;;;;;;;;;5099394;28;20541;-85
2021/01/07 04:16:01;;;;;;;20.87;12.20;;;;;;;;;;5102720;28;20207;-85
2021/01/07 04:18:27;;;;;;;25.98;14.98;;;;;;;;;;5101214;28;20441;-86
2021/01/07 04:20:53;;;;;;;21.10;12.57;;;;;;;;;;5095267;28;20210;-87
2021/01/07 04:23:18;;;;;;;25.52;14.07;;;;;;;;;;5098445;28;20436;-86
2021/01/07 04:25:44;;;;;;;25.73;14.27;;;;;;;;;;5102827;28;20175;-86
2021/01/07 04:28:10;;;;;;;26.10;14.55;;;;;;;;;;5095416;28;20445;-86
2021/01/07 04:30:36;;;;;;;26.10;14.60;;;;;;;;;;5093656;28;20180;-86
2021/01/07 04:33:03;;;;;;;22.20;14.13;;;;;;;;;;5101898;28;20180;-86
2021/01/07 04:35:29;;;;;;;23.65;14.10;;;;;;;;;;5095973;28;20195;-84
2021/01/07 04:37:55;;;;;;;24.33;14.30;;;;;;;;;;5112755;28;20171;-86
2021/01/07 04:40:21;;;;;;;24.92;14.40;;;;;;;;;;5101855;28;20434;-86
2021/01/07 04:42:47;;;;;;;23.00;14.05;;;;;;;;;;5100888;28;20549;-86
2021/01/07 04:45:13;;;;;;;24.30;13.95;;;;;;;;;;5100840;28;20206;-86
2021/01/07 04:47:40;;;;;;;23.63;14.05;;;;;;;;;;5115774;28;20710;-86
2021/01/07 04:50:06;;;;;;;24.98;14.80;;;;;;;;;;5100261;28;20209;-85
2021/01/07 04:52:33;;;;;;;19.58;13.57;;;;;;;;;;5102062;28;20195;-86
2021/01/07 04:55:00;;;;;;;25.50;15.07;;;;;;;;;;5102520;28;20250;-85
2021/01/07 04:57:26;;;;;;;32.80;17.65;;;;;;;;;;5098975;28;20531;-86
2021/01/07 04:59:52;;;;;;;30.65;17.20;;;;;;;;;;5099791;28;20303;-87
2021/01/07 05:02:18;;;;;;;28.85;17.08;;;;;;;;;;5097392;28;20255;-86
2021/01/07 05:04:48;;;;;;;26.00;17.23;;;;;;;;;;5097976;28;20237;-86
2021/01/07 05:07:16;;;;;;;28.75;16.80;;;;;;;;;;5091620;28;20266;-87
2021/01/07 05:09:42;;;;;;;32.85;19.80;;;;;;;;;;5100233;28;20738;-86
2021/01/07 05:12:08;;;;;;;30.02;16.67;;;;;;;;;;5100119;28;20251;-86
2021/01/07 05:14:41;;;;;;;26.02;16.48;;;;;;;;;;5102041;28;20186;-86
2021/01/07 05:17:08;;;;;;;31.25;17.75;;;;;;;;;;5098010;28;20536;-86
2021/01/07 05:19:36;;;;;;;31.90;18.60;;;;;;;;;;5095088;28;20184;-86
2021/01/07 05:22:02;;;;;;;27.70;17.17;;;;;;;;;;5095645;28;20188;-86
2021/01/07 05:24:28;;;;;;;29.88;18.02;;;;;;;;;;5099183;28;20225;-86
2021/01/07 05:26:54;;;;;;;31.17;18.20;;;;;;;;;;5095664;28;20190;-86
2021/01/07 05:29:20;;;;;;;30.08;18.17;;;;;;;;;;5093289;28;20171;-87
2021/01/07 05:31:52;;;;;;;34.97;20.42;;;;;;;;;;5101858;28;20633;-86
2021/01/07 05:34:19;;;;;;;30.17;18.45;;;;;;;;;;5102119;28;20191;-86
2021/01/07 05:36:45;;;;;;;31.40;18.10;;;;;;;;;;5100777;28;20177;-86
2021/01/07 05:39:11;;;;;;;31.35;18.42;;;;;;;;;;5100074;28;20269;-86
2021/01/07 05:41:37;;;;;;;32.80;18.60;;;;;;;;;;5097020;28;20652;-86
2021/01/07 05:44:03;;;;;;;30.70;17.60;;;;;;;;;;5097240;28;20468;-86
2021/01/07 05:46:30;;;;;;;30.42;18.10;;;;;;;;;;5102220;28;20271;-86
2021/01/07 05:48:56;;;;;;;34.05;17.60;;;;;;;;;;5098197;28;20203;-87
2021/01/07 05:51:26;;;;;;;32.95;18.67;;;;;;;;;;5097836;28;20184;-86
2021/01/07 05:53:53;;;;;;;29.40;17.42;;;;;;;;;;5093645;28;20711;-85
2021/01/07 05:56:20;;;;;;;31.90;17.17;;;;;;;;;;5097349;28;20229;-86
2021/01/07 05:58:47;;;;;;;26.33;17.48;;;;;;;;;;5101184;28;20188;-86
2021/01/07 06:01:14;;;;;;;32.30;18.85;;;;;;;;;;5101283;28;20303;-86
2021/01/07 06:03:46;;;;;;;37.15;19.50;;;;;;;;;;5099767;28;20306;-85
2021/01/07 06:06:12;;;;;;;35.80;19.48;;;;;;;;;;5100830;28;20738;-87
2021/01/07 06:08:40;;;;;;;28.58;17.02;;;;;;;;;;5102219;28;20176;-86
2021/01/07 06:11:07;;;;;;;38.38;20.77;;;;;;;;;;5097148;28;20186;-87
2021/01/07 06:13:33;;;;;;;33.85;18.48;;;;;;;;;;5095614;28;20195;-87
2021/01/07 06:15:58;;;;;;;33.55;18.90;;;;;;;;;;5096155;28;20214;-87
2021/01/07 06:18:24;;;;;;;26.88;17.73;;;;;;;;;;5095901;28;20192;-87
2021/01/07 06:21:00;;;;;;;37.27;18.80;;;;;;;;;;5099360;28;20196;-88
2021/01/07 06:23:30;;;;;;;30.00;17.05;;;;;;;;;;5101488;28;20413;-87
2021/01/07 06:26:25;;;;;;;38.20;20.20;;;;;;;;;;5092867;28;20180;-88
2021/01/07 06:28:53;;;;;;;34.72;19.85;;;;;;;;;;5090250;28;20279;-88
2021/01/07 06:31:19;;;;;;;32.20;19.08;;;;;;;;;;5094677;28;20184;-89
2021/01/07 06:33:46;;;;;;;37.50;20.13;;;;;;;;;;5100478;28;20266;-88
2021/01/07 06:36:12;;;;;;;34.65;20.25;;;;;;;;;;5097056;28;20390;-87
2021/01/07 06:38:49;;;;;;;33.85;18.92;;;;;;;;;;5088535;28;20211;-86
2021/01/07 06:41:15;;;;;;;36.33;22.42;;;;;;;;;;5109924;28;20180;-86
2021/01/07 06:43:42;;;;;;;37.53;21.07;;;;;;;;;;5122247;28;20227;-85
2021/01/07 06:46:08;;;;;;;39.22;20.08;;;;;;;;;;5096435;28;20418;-86
2021/01/07 06:48:34;;;;;;;36.50;22.10;;;;;;;;;;5100282;28;20208;-85
2021/01/07 06:51:01;;;;;;;32.53;20.10;;;;;;;;;;5090586;28;20184;-85
2021/01/07 06:53:27;;;;;;;34.25;20.50;;;;;;;;;;5102473;28;20235;-83
2021/01/07 06:56:12;;;;;;;39.15;20.42;;;;;;;;;;5099023;28;20740;-85
2021/01/07 06:58:40;;;;;;;36.80;21.17;;;;;;;;;;5100811;28;20243;-84
2021/01/07 07:01:06;;;;;;;38.20;22.95;;;;;;;;;;5101475;28;20219;-84
2021/01/07 07:03:33;;;;;;;35.72;21.30;;;;;;;;;;5100566;28;20230;-84
2021/01/07 07:06:00;;;;;;;41.97;22.70;;;;;;;;;;5111076;28;20645;-84
2021/01/07 07:08:36;;;;;;;42.25;24.25;;;;;;;;;;5107105;28;20203;-86
2021/01/07 07:11:07;;;;;;;39.33;22.30;;;;;;;;;;5097443;28;20191;-85
2021/01/07 07:13:39;;;;;;;37.22;21.67;;;;;;;;;;5099749;28;20187;-85
2021/01/07 07:16:05;;;;;;;37.75;20.27;;;;;;;;;;5093456;28;20663;-84
2021/01/07 07:18:32;;;;;;;45.33;23.75;;;;;;;;;;5104175;28;20203;-84
2021/01/07 07:20:58;;;;;;;35.50;21.52;;;;;;;;;;5097812;28;20198;-84
2021/01/07 07:23:24;;;;;;;40.70;22.27;;;;;;;;;;5101392;28;20207;-85
2021/01/07 07:25:51;;;;;;;41.95;21.42;;;;;;;;;;5104683;28;20436;-85
2021/01/07 07:28:25;;;;;;;42.05;22.48;;;;;;;;;;5097585;28;20190;-86
2021/01/07 07:30:51;;;;;;;38.65;21.30;;;;;;;;;;5094721;28;20632;-85
2021/01/07 07:33:37;;;;;;;42.30;22.65;;;;;;;;;;5089904;28;20184;-85
2021/01/07 07:36:07;;;;;;;41.33;21.67;;;;;;;;;;5116206;28;20274;-84
2021/01/07 07:38:34;;;;;;;40.13;22.45;;;;;;;;;;5100100;28;20251;-82
2021/01/07 07:41:02;;;;;;;42.92;22.95;;;;;;;;;;5098392;28;20209;-82
2021/01/07 07:43:30;;;;;;;44.85;23.77;;;;;;;;;;5103553;28;20271;-82
2021/01/07 07:45:56;;;;;;;40.05;24.30;;;;;;;;;;5095083;28;20173;-83
2021/01/07 07:48:24;;;;;;;45.50;25.67;;;;;;;;;;5114959;28;20649;-83
2021/01/07 07:50:50;;;;;;;43.58;23.90;;;;;;;;;;5097764;28;20197;-82
2021/01/07 07:53:16;;;;;;;41.55;24.88;;;;;;;;;;5093766;28;20169;-83
2021/01/07 07:55:43;;;;;;;45.42;23.95;;;;;;;;;;5098558;28;20222;-83
2021/01/07 07:58:16;;;;;;;48.45;26.25;;;;;;;;;;5100861;28;20236;-83
2021/01/07 08:00:51;;;;;;;48.35;25.67;;;;;;;;;;5092297;28;20224;-83
2021/01/07 08:03:28;;;;;;;57.80;25.50;;;;;;;;;;5098853;28;20547;-83
2021/01/07 08:05:54;;;;;;;51.83;23.88;;;;;;;;;;5100900;28;20189;-84
2021/01/07 08:08:33;;;;;;;47.15;25.02;;;;;;;;;;5098304;28;20217;-83
2021/01/07 08:11:00;;;;;;;51.15;25.40;;;;;;;;;;5112969;28;20178;-83
2021/01/07 08:13:27;;;;;;;52.38;26.92;;;;;;;;;;5093633;28;20199;-83
2021/01/07 08:15:59;;;;;;;49.08;25.45;;;;;;;;;;5099438;28;20184;-83
2021/01/07 08:18:25;;;;;;;50.17;23.13;;;;;;;;;;5093957;28;20181;-82
2021/01/07 08:20:52;;;;;;;57.67;25.67;;;;;;;;;;5101299;28;20280;-83
2021/01/07 08:23:19;;;;;;;45.15;24.42;;;;;;;;;;5098158;28;20413;-83
2021/01/07 08:25:46;;;;;;;56.35;24.77;;;;;;;;;;5103494;28;20195;-84
2021/01/07 08:28:32;;;;;;;44.60;24.77;;;;;;;;;;5094667;28;20196;-82
2021/01/07 08:30:59;;;;;;;52.55;23.05;;;;;;;;;;5099389;28;20204;-83
2021/01/07 08:33:25;;;;;;;46.17;23.88;;;;;;;;;;5097797;28;20180;-83
2021/01/07 08:35:52;;;;;;;44.92;23.95;;;;;;;;;;5101172;28;20195;-84
2021/01/07 08:38:25;;;;;;;50.60;24.10;;;;;;;;;;5101164;28;20184;-83
2021/01/07 08:40:52;;;;;;;43.75;21.90;;;;;;;;;;5102481;28;20259;-83
2021/01/07 08:43:19;;;;;;;37.97;18.88;;;;;;;;;;5101418;28;20187;-83
2021/01/07 08:45:45;;;;;;;35.88;20.27;;;;;;;;;;5098896;28;20177;-82
2021/01/07 08:48:11;;;;;;;36.70;20.42;;;;;;;;;;5096945;28;20206;-83
2021/01/07 08:50:38;;;;;;;39.58;18.17;;;;;;;;;;5094366;28;20245;-82
2021/01/07 08:53:08;;;;;;;35.60;19.75;;;;;;;;;;5097545;28;20179;-83
2021/01/07 08:55:44;;;;;;;33.70;18.92;;;;;;;;;;5094942;28;20673;-82
2021/01/07 08:58:11;;;;;;;35.63;18.33;;;;;;;;;;5096776;28;20191;-83
2021/01/07 09:00:37;;;;;;;39.65;21.30;;;;;;;;;;5101448;28;20239;-83
2021/01/07 09:03:03;;;;;;;33.80;18.08;;;;;;;;;;5095266;28;20217;-82
2021/01/07 09:05:29;;;;;;;37.60;19.85;;;;;;;;;;5098307;28;20204;-83
2021/01/07 09:08:08;;;;;;;37.60;19.42;;;;;;;;;;5111267;28;20180;-83
2021/01/07 09:10:34;;;;;;;39.55;19.80;;;;;;;;;;5102234;28;20179;-83
2021/01/07 09:13:14;;;;;;;35.80;19.45;;;;;;;;;;5101313;28;20255;-83
2021/01/07 09:15:40;;;;;;;36.42;18.23;;;;;;;;;;5102135;28;20184;-83
2021/01/07 09:18:06;;;;;;;31.05;17.77;;;;;;;;;;5096670;28;20207;-83
2021/01/07 09:20:33;;;;;;;37.50;21.05;;;;;;;;;;5102344;28;20180;-83
2021/01/07 09:23:03;;;;;;;36.05;18.10;;;;;;;;;;5094969;28;20241;-84
2021/01/07 09:25:29;;;;;;;34.45;20.35;;;;;;;;;;5098001;28;20302;-83
2021/01/07 09:27:56;;;;;;;37.30;19.63;;;;;;;;;;5088618;28;20264;-83
2021/01/07 09:30:22;;;;;;;31.00;17.05;;;;;;;;;;5100814;28;20179;-83
2021/01/07 09:32:48;;;;;;;36.13;17.90;;;;;;;;;;5090913;28;20207;-86
2021/01/07 09:35:14;;;;;;;35.05;18.75;;;;;;;;;;5096071;28;20215;-84
2021/01/07 09:37:40;;;;;;;36.50;21.03;;;;;;;;;;5098382;28;20188;-83
2021/01/07 09:40:07;;;;;;;39.15;17.77;;;;;;;;;;5094480;28;20462;-82
2021/01/07 09:42:33;;;;;;;39.17;20.15;;;;;;;;;;5077793;28;20246;-84
2021/01/07 09:45:00;;;;;;;42.08;21.05;;;;;;;;;;5080823;28;20204;-83
2021/01/07 09:47:26;;;;;;;37.92;20.70;;;;;;;;;;5079325;28;20177;-84
2021/01/07 09:49:52;;;;;;;39.88;18.98;;;;;;;;;;5079989;28;20180;-84
2021/01/07 09:52:18;;;;;;;36.95;20.70;;;;;;;;;;5098099;28;20176;-86
2021/01/07 09:54:44;;;;;;;36.67;18.70;;;;;;;;;;5095025;28;20567;-86
2021/01/07 09:57:10;;;;;;;33.70;19.10;;;;;;;;;;5091108;28;20212;-86
2021/01/07 09:59:36;;;;;;;35.83;17.25;;;;;;;;;;5081692;28;20228;-86
2021/01/07 10:02:05;;;;;;;36.38;19.60;;;;;;;;;;5097708;28;20196;-87
2021/01/07 10:04:30;;;;;;;35.50;17.70;;;;;;;;;;5081609;28;20210;-86
2021/01/07 10:06:57;;;;;;;32.58;18.20;;;;;;;;;;5082095;28;20204;-84
2021/01/07 10:09:23;;;;;;;29.52;15.75;;;;;;;;;;5078072;28;20177;-86
2021/01/07 10:11:50;;;;;;;34.03;17.73;;;;;;;;;;5074337;28;20172;-87
2021/01/07 10:14:25;;;;;;;35.53;17.85;;;;;;;;;;5084518;28;20239;-86
2021/01/07 10:16:57;;;;;;;33.03;16.38;;;;;;;;;;5103109;28;20184;-85
2021/01/07 10:19:24;;;;;;;32.95;18.00;;;;;;;;;;5093223;28;20283;-85
2021/01/07 10:22:00;;;;;;;36.45;16.30;;;;;;;;;;5098084;28;20264;-83
2021/01/07 10:24:26;;;;;;;27.98;16.20;;;;;;;;;;5080172;28;20196;-82
2021/01/07 10:26:53;;;;;;;34.28;16.63;;;;;;;;;;5080901;28;20188;-82
2021/01/07 10:29:19;;;;;;;35.53;16.25;;;;;;;;;;5083274;28;20180;-82
2021/01/07 10:31:45;;;;;;;35.53;18.97;;;;;;;;;;5098079;28;20180;-84
2021/01/07 10:34:12;;;;;;;36.28;17.83;;;;;;;;;;5092849;28;20458;-83
2021/01/07 10:36:39;;;;;;;50.75;21.55;;;;;;;;;;5080647;28;20258;-83
2021/01/07 10:39:05;;;;;;;38.65;20.30;;;;;;;;;;5082318;28;20196;-83
2021/01/07 10:41:31;;;;;;;31.58;19.08;;;;;;;;;;5086060;28;20630;-83
2021/01/07 10:44:01;;;;;;;45.13;21.90;;;;;;;;;;5097972;28;20211;-84
2021/01/07 10:46:27;;;;;;;35.88;18.77;;;;;;;;;;5101720;28;20602;-83
2021/01/07 10:48:55;;;;;;;36.03;18.05;;;;;;;;;;5101360;28;20296;-84
2021/01/07 10:51:21;;;;;;;31.90;17.95;;;;;;;;;;5084757;28;20183;-84
2021/01/07 10:53:47;;;;;;;31.75;17.23;;;;;;;;;;5084137;28;20187;-82
2021/01/07 10:56:19;;;;;;;29.58;16.35;;;;;;;;;;5087547;28;20173;-82
2021/01/07 10:58:48;;;;;;;26.08;14.88;;;;;;;;;;5094977;28;20258;-82
2021/01/07 11:01:44;;;;;;;25.00;14.90;;;;;;;;;;5095707;28;20200;-81
2021/01/07 11:04:13;;;;;;;25.80;14.20;;;;;;;;;;5066207;28;20270;-82
2021/01/07 11:06:43;;;;;;;25.63;15.57;;;;;;;;;;5078684;28;20173;-82
2021/01/07 11:09:14;;;;;;;22.17;14.80;;;;;;;;;;5083708;28;20231;-82
2021/01/07 11:11:42;;;;;;;31.10;16.25;;;;;;;;;;5083527;28;20183;-83
2021/01/07 11:14:09;;;;;;;31.00;16.00;;;;;;;;;;5083178;28;20218;-82
2021/01/07 11:16:47;;;;;;;34.15;16.75;;;;;;;;;;5092709;28;20238;-83
2021/01/07 11:19:15;;;;;;;29.55;16.30;;;;;;;;;;5099853;28;20184;-83
2021/01/07 11:21:43;;;;;;;30.15;16.70;;;;;;;;;;5079213;28;20185;-83
2021/01/07 11:24:10;;;;;;;26.65;15.32;;;;;;;;;;5082367;28;20204;-82
2021/01/07 11:26:37;;;;;;;25.50;15.70;;;;;;;;;;5080941;28;20176;-83
2021/01/07 11:29:03;;;;;;;28.75;20.60;;;;;;;;;;5095421;28;20180;-84
2021/01/07 11:31:29;;;;;;;27.75;16.27;;;;;;;;;;5085046;28;20287;-85
2021/01/07 11:33:58;;;;;;;26.60;14.95;;;;;;;;;;5100221;28;20336;-83
2021/01/07 11:36:28;;;;;;;24.08;16.42;;;;;;;;;;5085088;28;20176;-84
2021/01/07 11:39:03;;;;;;;23.52;14.30;;;;;;;;;;5081337;28;20203;-82
2021/01/07 11:41:58;;;;;;;26.85;14.95;;;;;;;;;;5080857;28;20180;-83
2021/01/07 11:44:37;;;;;;;25.73;13.82;;;;;;;;;;5078182;28;20212;-84
2021/01/07 11:47:09;;;;;;;25.50;13.20;;;;;;;;;;5084627;28;20585;-83
2021/01/07 11:49:39;;;;;;;19.75;11.77;;;;;;;;;;5084697;28;20191;-83
2021/01/07 11:52:07;;;;;;;24.67;13.90;;;;;;;;;;5084488;28;20191;-85
2021/01/07 11:54:34;;;;;;;18.88;12.57;;;;;;;;;;5083143;28;20214;-84
2021/01/07 11:57:00;;;;;;;19.67;12.93;;;;;;;;;;5077916;28;20192;-83
2021/01/07 11:59:27;;;;;;;17.80;10.50;;;;;;;;;;5085931;28;20239;-83
2021/01/07 12:01:53;;;;;;;19.40;11.70;;;;;;;;;;5086129;28;20188;-85
2021/01/07 12:04:21;;;;;;;20.88;13.15;;;;;;;;;;5094180;28;20276;-83
2021/01/07 12:06:55;;;;;;;22.30;13.73;;;;;;;;;;5091177;28;20340;-83
2021/01/07 12:09:31;;;;;;;19.80;12.25;;;;;;;;;;5082946;28;20285;-83
2021/01/07 12:12:09;;;;;;;19.73;12.27;;;;;;;;;;5083765;28;20224;-84
2021/01/07 12:14:52;;;;;;;24.90;15.65;;;;;;;;;;5079502;28;20180;-86
2021/01/07 12:17:18;;;;;;;24.65;14.77;;;;;;;;;;5080260;28;20237;-84
2021/01/07 12:19:44;;;;;;;22.10;14.25;;;;;;;;;;5081384;28;20192;-83
2021/01/07 12:22:15;;;;;;;52.58;29.23;;;;;;;;;;5078114;28;20193;-84
2021/01/07 12:24:43;;;;;;;40.38;25.10;;;;;;;;;;5080352;28;20200;-84
2021/01/07 12:27:09;;;;;;;32.75;16.40;;;;;;;;;;5079168;28;20178;-84
2021/01/07 12:29:37;;;;;;;38.38;21.25;;;;;;;;;;5080411;28;20235;-84
2021/01/07 12:32:08;;;;;;;30.55;19.27;;;;;;;;;;5093673;28;20172;-83
2021/01/07 12:34:45;;;;;;;23.85;15.43;;;;;;;;;;5074359;28;20188;-83
2021/01/07 12:37:13;;;;;;;23.85;14.80;;;;;;;;;;5097580;28;20184;-85
2021/01/07 12:40:11;;;;;;;27.23;15.63;;;;;;;;;;5097435;28;20713;-84
2021/01/07 12:42:45;;;;;;;21.88;12.63;;;;;;;;;;5055750;28;20198;-83
2021/01/07 12:45:13;;;;;;;23.98;14.57;;;;;;;;;;5028465;28;20213;-84
2021/01/07 12:47:39;;;;;;;19.45;11.77;;;;;;;;;;5039817;28;20185;-84
2021/01/07 12:50:06;;;;;;;17.02;10.65;;;;;;;;;;5041447;28;20178;-84
2021/01/07 12:52:33;;;;;;;16.63;11.80;;;;;;;;;;5050876;28;20197;-83
2021/01/07 12:55:01;;;;;;;15.60;10.15;;;;;;;;;;5039197;28;20190;-84
2021/01/07 12:57:29;;;;;;;19.17;14.13;;;;;;;;;;5056964;28;20190;-83
2021/01/07 13:00:04;;;;;;;30.65;18.17;;;;;;;;;;5026139;28;20285;-85
2021/01/07 13:02:33;;;;;;;17.25;10.20;;;;;;;;;;5054970;28;20237;-84
2021/01/07 13:05:11;;;;;;;35.53;21.92;;;;;;;;;;5056801;28;20279;-84
2021/01/07 13:07:38;;;;;;;61.38;34.00;;;;;;;;;;5019225;28;20207;-83
2021/01/07 13:10:05;;;;;;;29.75;16.95;;;;;;;;;;5057063;28;20186;-84
2021/01/07 13:12:33;;;;;;;29.45;17.63;;;;;;;;;;5025698;28;20698;-85
2021/01/07 13:15:00;;;;;;;13.30;9.25;;;;;;;;;;5033029;28;20189;-81
2021/01/07 13:17:26;;;;;;;14.40;8.52;;;;;;;;;;5067146;28;20192;-84
2021/01/07 13:19:54;;;;;;;13.63;8.50;;;;;;;;;;5077938;28;20192;-85
2021/01/07 13:22:20;;;;;;;59.83;31.50;;;;;;;;;;5097771;28;20184;-86
2021/01/07 13:24:46;;;;;;;19.98;10.30;;;;;;;;;;5101057;28;20211;-84
2021/01/07 13:27:13;;;;;;;25.58;14.85;;;;;;;;;;5079010;28;20185;-85
2021/01/07 13:29:39;;;;;;;16.85;9.32;;;;;;;;;;5080803;28;20173;-84
2021/01/07 13:32:06;;;;;;;16.38;9.43;;;;;;;;;;5080078;28;20252;-83
2021/01/07 13:34:32;;;;;;;19.58;11.20;;;;;;;;;;5097775;28;20234;-83
2021/01/07 13:36:58;;;;;;;19.73;11.45;;;;;;;;;;5114891;28;20205;-83
2021/01/07 13:39:24;;;;;;;14.87;8.53;;;;;;;;;;5081907;28;20252;-86
2021/01/07 13:41:52;;;;;;;16.25;10.85;;;;;;;;;;5081227;28;20427;-87
2021/01/07 13:44:19;;;;;;;20.90;11.95;;;;;;;;;;5083426;28;20196;-84
2021/01/07 13:46:46;;;;;;;14.73;9.45;;;;;;;;;;5097346;28;20202;-84
2021/01/07 13:49:14;;;;;;;17.20;12.57;;;;;;;;;;5094440;28;20180;-83
2021/01/07 13:51:41;;;;;;;18.48;11.48;;;;;;;;;;5113850;28;20182;-83
2021/01/07 13:54:08;;;;;;;12.25;9.20;;;;;;;;;;5081219;28;20181;-84
2021/01/07 13:56:34;;;;;;;18.67;11.13;;;;;;;;;;5080850;28;20193;-83
2021/01/07 13:59:01;;;;;;;16.05;8.18;;;;;;;;;;5082585;28;20184;-85
2021/01/07 14:01:27;;;;;;;23.77;9.60;;;;;;;;;;5114871;28;20192;-85
2021/01/07 14:03:53;;;;;;;14.35;10.05;;;;;;;;;;5080485;28;20205;-84
2021/01/07 14:06:19;;;;;;;11.15;7.22;;;;;;;;;;5082181;28;20188;-84
2021/01/07 14:08:52;;;;;;;15.73;8.05;;;;;;;;;;5076091;28;20267;-83
2021/01/07 14:11:21;;;;;;;32.92;17.17;;;;;;;;;;5080705;28;20512;-84
2021/01/07 14:13:47;;;;;;;16.38;8.90;;;;;;;;;;5101036;28;20188;-83
2021/01/07 14:16:13;;;;;;;11.52;7.35;;;;;;;;;;5079748;28;20206;-84
2021/01/07 14:18:39;;;;;;;9.87;6.30;;;;;;;;;;5099409;28;20259;-84
2021/01/07 14:21:06;;;;;;;14.80;8.30;;;;;;;;;;5085175;28;20442;-85
2021/01/07 14:23:32;;;;;;;10.88;7.03;;;;;;;;;;5079806;28;20215;-83